createdAt,value
2022-12-03T00:02:22.359Z,17.80
2022-12-03T00:05:33.912Z,17.92
2022-12-03T00:08:45.564Z,17.08
2022-12-03T00:12:02.020Z,17.80
2022-12-03T00:15:26.863Z,16.15
2022-12-03T00:19:15.188Z,17.10
2022-12-03T00:22:55.716Z,16.73
2022-12-03T00:26:14.654Z,17.02
2022-12-03T00:29:35.983Z,17.17
2022-12-03T00:32:44.107Z,16.42
2022-12-03T00:36:09.419Z,16.83
2022-12-03T00:39:32.251Z,17.00
2022-12-03T00:42:49.394Z,17.20
2022-12-03T00:46:22.120Z,18.13
2022-12-03T00:49:38.521Z,16.83
2022-12-03T00:53:01.588Z,16.35
2022-12-03T00:56:28.616Z,16.30
2022-12-03T00:59:59.917Z,17.48
2022-12-03T01:03:07.023Z,17.60
2022-12-03T01:06:18.899Z,17.05
2022-12-03T01:09:24.702Z,17.88
2022-12-03T01:12:38.620Z,17.55
2022-12-03T01:16:04.853Z,17.38
2022-12-03T01:19:25.068Z,16.63
2022-12-03T01:22:48.049Z,18.00
2022-12-03T01:26:10.041Z,18.52
2022-12-03T01:29:27.901Z,17.05
2022-12-03T01:32:50.960Z,17.35
2022-12-03T01:39:38.140Z,19.02
2022-12-03T01:42:48.955Z,18.23
2022-12-03T01:46:16.027Z,17.08
2022-12-03T01:50:00.124Z,19.13
2022-12-03T01:53:15.676Z,17.53
2022-12-03T01:56:30.671Z,17.17
2022-12-03T01:59:40.030Z,17.05
2022-12-03T02:02:45.570Z,16.90
2022-12-03T02:05:55.403Z,17.35
2022-12-03T02:09:10.674Z,18.23
2022-12-03T02:12:32.777Z,17.17
2022-12-03T02:15:53.592Z,17.75
2022-12-03T02:19:15.594Z,17.42
2022-12-03T02:22:38.628Z,16.83
2022-12-03T02:25:50.772Z,16.40
2022-12-03T02:28:57.524Z,16.77
2022-12-03T02:32:02.754Z,17.67
2022-12-03T02:35:21.201Z,17.02
2022-12-03T02:38:27.071Z,17.40
2022-12-03T02:42:05.471Z,17.73
2022-12-03T02:45:25.403Z,17.25
2022-12-03T02:48:40.988Z,17.10
2022-12-03T02:51:56.956Z,16.98
2022-12-03T02:55:30.712Z,17.10
2022-12-03T02:58:56.014Z,17.43
2022-12-03T03:02:26.988Z,17.77
2022-12-03T03:05:41.825Z,17.67
2022-12-03T03:09:01.185Z,17.42
2022-12-03T03:12:11.963Z,17.38
2022-12-03T03:15:24.579Z,17.93
2022-12-03T03:18:33.704Z,17.58
2022-12-03T03:21:47.701Z,17.45
2022-12-03T03:25:06.108Z,17.02
2022-12-03T03:28:25.668Z,16.83
2022-12-03T03:31:51.774Z,16.53
2022-12-03T03:35:13.923Z,17.02
2022-12-03T03:38:34.870Z,16.98
2022-12-03T03:41:56.911Z,17.25
2022-12-03T03:45:29.138Z,16.85
2022-12-03T03:48:52.514Z,17.17
2022-12-03T03:52:16.219Z,17.67
2022-12-03T03:55:29.699Z,18.15
2022-12-03T03:58:53.785Z,17.67
2022-12-03T04:02:27.289Z,16.90
2022-12-03T04:05:42.464Z,17.63
2022-12-03T04:08:57.772Z,17.80
2022-12-03T04:12:25.792Z,17.52
2022-12-03T04:15:44.793Z,16.92
2022-12-03T04:19:02.828Z,19.08
2022-12-03T04:22:45.558Z,17.63
2022-12-03T04:26:44.277Z,18.23
2022-12-03T04:30:07.450Z,17.80
2022-12-03T04:33:43.087Z,17.75
2022-12-03T04:36:54.148Z,17.25
2022-12-03T04:40:39.443Z,17.47
2022-12-03T04:44:37.635Z,17.13
2022-12-03T04:47:44.187Z,17.40
2022-12-03T04:50:57.505Z,18.55
2022-12-03T04:54:11.902Z,17.85
2022-12-03T04:57:19.244Z,18.27
2022-12-03T05:00:29.523Z,17.23
2022-12-03T05:03:47.436Z,19.23
2022-12-03T05:07:06.687Z,18.60
2022-12-03T05:10:36.972Z,19.08
2022-12-03T05:13:54.322Z,18.83
2022-12-03T05:17:17.251Z,19.27
2022-12-03T05:20:51.465Z,18.50
2022-12-03T05:24:08.908Z,18.33
2022-12-03T05:27:24.192Z,19.10
2022-12-03T05:30:50.399Z,17.43
2022-12-03T05:34:09.319Z,19.08
2022-12-03T05:37:31.591Z,21.05
2022-12-03T05:40:53.686Z,20.42
2022-12-03T05:44:20.812Z,19.42
2022-12-03T05:47:37.244Z,18.63
2022-12-03T05:51:00.395Z,20.50
2022-12-03T05:54:07.694Z,19.27
2022-12-03T05:57:32.314Z,18.42
2022-12-03T06:01:10.606Z,18.02
2022-12-03T06:04:26.383Z,19.43
2022-12-03T06:07:50.637Z,18.70
2022-12-03T06:11:16.415Z,19.23
2022-12-03T06:14:40.431Z,18.60
2022-12-03T06:17:57.537Z,20.10
2022-12-03T06:21:24.047Z,17.87
2022-12-03T06:24:40.253Z,18.73
2022-12-03T06:28:04.539Z,17.92
2022-12-03T06:31:19.341Z,18.58
2022-12-03T06:34:27.805Z,18.88
2022-12-03T06:37:33.995Z,19.37
2022-12-03T06:40:46.126Z,18.20
2022-12-03T06:44:11.317Z,18.13
2022-12-03T06:47:33.254Z,18.95
2022-12-03T06:50:50.839Z,19.17
2022-12-03T06:54:12.807Z,19.20
2022-12-03T06:57:23.786Z,19.67
2022-12-03T07:00:41.907Z,19.13
2022-12-03T07:04:07.265Z,19.20
2022-12-03T07:07:15.514Z,18.52
2022-12-03T07:10:32.228Z,18.37
2022-12-03T07:13:48.994Z,19.08
2022-12-03T07:17:01.574Z,20.42
2022-12-03T07:20:22.358Z,19.08
2022-12-03T07:23:35.649Z,18.75
2022-12-03T07:26:42.635Z,19.87
2022-12-03T07:29:56.548Z,20.20
2022-12-03T07:33:05.685Z,19.90
2022-12-03T07:36:23.937Z,19.13
2022-12-03T07:39:43.242Z,19.63
2022-12-03T07:43:11.746Z,20.63
2022-12-03T07:46:23.210Z,19.48
2022-12-03T07:49:52.922Z,22.15
2022-12-03T07:53:16.914Z,20.20
2022-12-03T07:56:38.990Z,19.08
2022-12-03T08:00:01.302Z,19.37
2022-12-03T08:03:26.519Z,20.67
2022-12-03T08:06:51.521Z,19.63
2022-12-03T08:10:08.366Z,19.85
2022-12-03T08:13:32.010Z,20.73
2022-12-03T08:16:41.145Z,20.37
2022-12-03T08:19:50.930Z,20.95
2022-12-03T08:23:07.011Z,22.17
2022-12-03T08:26:35.331Z,19.00
2022-12-03T08:29:48.193Z,19.58
2022-12-03T08:32:59.943Z,20.40
2022-12-03T08:36:23.950Z,20.45
2022-12-03T08:39:48.610Z,21.42
2022-12-03T08:43:04.299Z,19.25
2022-12-03T08:46:32.129Z,18.98
2022-12-03T08:50:09.954Z,19.00
2022-12-03T08:53:50.104Z,20.27
2022-12-03T08:57:45.485Z,19.38
2022-12-03T09:01:11.895Z,18.85
2022-12-03T09:04:44.851Z,19.65
2022-12-03T09:08:03.957Z,18.63
2022-12-03T09:11:33.774Z,20.20
2022-12-03T09:15:09.450Z,19.60
2022-12-03T09:18:19.625Z,20.13
2022-12-03T09:21:30.585Z,20.70
2022-12-03T09:24:34.403Z,22.07
2022-12-03T09:27:45.020Z,19.85
2022-12-03T09:30:51.838Z,20.20
2022-12-03T09:33:56.591Z,17.67
2022-12-03T09:37:04.260Z,17.85
2022-12-03T09:40:24.552Z,17.37
2022-12-03T09:44:04.036Z,17.80
2022-12-03T09:47:13.027Z,17.52
2022-12-03T09:50:35.040Z,17.42
2022-12-03T09:53:52.760Z,18.17
2022-12-03T09:57:18.677Z,18.63
2022-12-03T10:00:42.698Z,17.48
2022-12-03T10:04:08.183Z,18.10
2022-12-03T10:07:21.194Z,18.25
2022-12-03T10:10:40.267Z,17.90
2022-12-03T10:13:51.812Z,18.30
2022-12-03T10:17:18.580Z,18.50
2022-12-03T10:20:37.885Z,17.45
2022-12-03T10:24:17.827Z,17.50
2022-12-03T10:27:37.895Z,17.45
2022-12-03T10:31:01.725Z,18.20
2022-12-03T10:34:24.873Z,19.23
2022-12-03T10:37:50.071Z,18.80
2022-12-03T10:41:24.094Z,18.00
2022-12-03T10:44:33.850Z,18.20
2022-12-03T10:48:17.858Z,19.07
2022-12-03T10:51:29.298Z,17.58
2022-12-03T10:54:51.588Z,20.15
2022-12-03T10:57:59.920Z,18.38
2022-12-03T11:01:22.827Z,18.13
2022-12-03T11:04:39.807Z,18.93
2022-12-03T11:07:57.050Z,18.23
2022-12-03T11:11:45.057Z,18.30
2022-12-03T11:15:06.843Z,17.55
2022-12-03T11:18:09.918Z,17.65
2022-12-03T11:21:25.485Z,18.07
2022-12-03T11:24:44.767Z,18.58
2022-12-03T11:28:42.533Z,17.63
2022-12-03T11:31:59.931Z,16.55
2022-12-03T11:35:37.470Z,14.52
2022-12-03T11:39:15.480Z,12.57
2022-12-03T11:42:38.323Z,13.52
2022-12-03T11:46:07.420Z,13.88
2022-12-03T11:49:35.720Z,13.40
2022-12-03T11:52:49.741Z,14.05
2022-12-03T11:56:16.771Z,13.67
2022-12-03T11:59:39.810Z,12.88
2022-12-03T12:02:57.497Z,12.85
2022-12-03T12:06:26.930Z,12.85
2022-12-03T12:09:54.806Z,12.57
2022-12-03T12:13:04.173Z,12.20
2022-12-03T12:16:38.830Z,12.65
2022-12-03T12:19:54.644Z,12.50
2022-12-03T12:23:25.437Z,12.38
2022-12-03T12:26:39.445Z,12.10
2022-12-03T12:29:59.313Z,12.57
2022-12-03T12:33:23.605Z,12.82
2022-12-03T12:36:42.360Z,12.05
2022-12-03T12:39:55.206Z,12.52
2022-12-03T12:43:25.155Z,12.38
2022-12-03T12:46:48.884Z,11.50
2022-12-03T12:50:11.346Z,12.57
2022-12-03T12:53:37.463Z,11.80
2022-12-03T12:56:58.968Z,11.65
2022-12-03T13:00:24.584Z,12.15
2022-12-03T13:03:49.596Z,10.87
2022-12-03T13:06:57.168Z,10.82
2022-12-03T13:10:35.277Z,11.77
2022-12-03T13:14:03.959Z,11.73
2022-12-03T13:17:24.792Z,10.55
2022-12-03T13:20:31.640Z,11.17
2022-12-03T13:23:52.358Z,11.75
2022-12-03T13:27:17.369Z,12.13
2022-12-03T13:30:43.554Z,12.05
2022-12-03T13:34:15.482Z,10.88
2022-12-03T13:37:37.116Z,15.87
2022-12-03T13:40:44.995Z,10.85
2022-12-03T13:43:53.419Z,12.57
2022-12-03T13:47:12.213Z,13.82
2022-12-03T13:50:32.282Z,11.70
2022-12-03T13:53:40.601Z,12.70
2022-12-03T13:56:54.363Z,12.00
2022-12-03T14:00:11.107Z,11.75
2022-12-03T14:03:32.746Z,11.35
2022-12-03T14:06:54.914Z,11.73
2022-12-03T14:10:19.045Z,11.00
2022-12-03T14:13:42.079Z,10.90
2022-12-03T14:17:03.234Z,10.90
2022-12-03T14:20:21.908Z,11.23
2022-12-03T14:23:44.007Z,11.07
2022-12-03T14:27:12.145Z,11.53
2022-12-03T14:30:15.177Z,11.23
2022-12-03T14:33:18.940Z,10.57
2022-12-03T14:36:40.450Z,11.75
2022-12-03T14:39:49.427Z,11.38
2022-12-03T14:43:14.201Z,11.47
2022-12-03T14:46:37.879Z,12.32
2022-12-03T14:50:20.990Z,11.38
2022-12-03T14:54:05.303Z,12.45
2022-12-03T14:57:16.982Z,12.65
2022-12-03T15:00:24.022Z,12.03
2022-12-03T15:03:30.614Z,11.95
2022-12-03T15:06:58.756Z,12.48
2022-12-03T15:10:17.753Z,12.70
2022-12-03T15:13:41.025Z,13.20
2022-12-03T15:16:50.789Z,12.70
2022-12-03T15:20:14.524Z,13.13
2022-12-03T15:23:40.863Z,13.82
2022-12-03T15:27:05.432Z,14.13
2022-12-03T15:30:26.658Z,14.10
2022-12-03T15:33:48.498Z,12.60
2022-12-03T15:37:09.554Z,13.65
2022-12-03T15:40:35.833Z,13.45
2022-12-03T15:44:04.569Z,13.27
2022-12-03T15:47:24.769Z,14.20
2022-12-03T15:50:47.453Z,13.47
2022-12-03T15:53:55.879Z,13.50
2022-12-03T15:57:19.704Z,13.80
2022-12-03T16:00:35.909Z,14.00
2022-12-03T16:03:52.301Z,13.95
2022-12-03T16:07:17.683Z,14.13
2022-12-03T16:10:33.616Z,15.30
2022-12-03T16:13:37.543Z,13.85
2022-12-03T16:16:53.796Z,15.70
2022-12-03T16:20:23.086Z,14.82
2022-12-03T16:23:47.710Z,14.17
2022-12-03T16:26:58.682Z,14.07
2022-12-03T16:30:03.925Z,14.27
2022-12-03T16:33:10.521Z,14.50
2022-12-03T16:36:19.755Z,15.00
2022-12-03T16:39:36.818Z,15.37
2022-12-03T16:42:42.326Z,14.75
2022-12-03T16:46:21.754Z,15.40
2022-12-03T16:49:46.548Z,14.82
2022-12-03T16:53:03.878Z,15.75
2022-12-03T16:56:15.710Z,14.83
2022-12-03T16:59:27.018Z,14.77
2022-12-03T17:02:40.384Z,15.85
2022-12-03T17:05:44.999Z,16.45
2022-12-03T17:09:01.524Z,16.17
2022-12-03T17:13:08.317Z,16.37
2022-12-03T17:16:13.404Z,17.20
2022-12-03T17:19:25.955Z,16.88
2022-12-03T17:22:40.346Z,15.70
2022-12-03T17:25:57.660Z,16.33
2022-12-03T17:29:18.804Z,16.83
2022-12-03T17:32:35.575Z,17.25
2022-12-03T17:36:02.952Z,17.70
2022-12-03T17:39:19.538Z,17.83
2022-12-03T17:42:52.266Z,17.88
2022-12-03T17:46:20.103Z,18.90
2022-12-03T17:49:38.524Z,18.10
2022-12-03T17:52:58.684Z,18.00
2022-12-03T17:56:17.857Z,19.27
2022-12-03T17:59:41.436Z,19.30
2022-12-03T18:03:04.481Z,18.73
2022-12-03T18:06:30.544Z,18.98
2022-12-03T18:09:53.017Z,19.95
2022-12-03T18:13:14.227Z,20.75
2022-12-03T18:16:35.647Z,20.17
2022-12-03T18:19:55.715Z,19.90
2022-12-03T18:23:12.605Z,21.15
2022-12-03T18:26:27.101Z,20.58
2022-12-03T18:29:31.928Z,20.45
2022-12-03T18:32:54.097Z,20.85
2022-12-03T18:36:06.713Z,21.27
2022-12-03T18:39:38.018Z,21.23
2022-12-03T18:42:41.193Z,21.35
2022-12-03T18:45:56.717Z,21.50
2022-12-03T18:49:05.406Z,20.33
2022-12-03T18:52:14.876Z,21.57
2022-12-03T18:55:23.542Z,22.15
2022-12-03T18:58:45.300Z,23.00
2022-12-03T19:02:05.396Z,23.70
2022-12-03T19:05:29.434Z,21.75
2022-12-03T19:08:59.308Z,21.73
2022-12-03T19:12:15.011Z,21.17
2022-12-03T19:15:33.583Z,22.17
2022-12-03T19:18:55.430Z,22.10
2022-12-03T19:22:20.210Z,25.15
2022-12-03T19:25:41.307Z,25.20
2022-12-03T19:28:57.264Z,21.42
2022-12-03T19:32:24.376Z,23.08
2022-12-03T19:35:46.551Z,22.55
2022-12-03T19:39:10.218Z,23.00
2022-12-03T19:42:36.974Z,23.00
2022-12-03T19:45:55.583Z,21.10
2022-12-03T19:49:12.539Z,20.95
2022-12-03T19:52:26.279Z,21.58
2022-12-03T19:55:52.397Z,21.92
2022-12-03T19:59:14.572Z,21.27
2022-12-03T20:02:38.421Z,22.05
2022-12-03T20:05:46.041Z,22.92
2022-12-03T20:09:06.346Z,22.30
2022-12-03T20:12:14.083Z,23.33
2022-12-03T20:15:30.147Z,25.03
2022-12-03T20:18:53.142Z,23.23
2022-12-03T20:22:11.127Z,25.85
2022-12-03T20:25:37.066Z,24.10
2022-12-03T20:28:53.238Z,24.25
2022-12-03T20:32:21.111Z,32.80
2022-12-03T20:35:24.351Z,24.60
2022-12-03T20:38:53.030Z,25.15
2022-12-03T20:42:29.980Z,28.98
2022-12-03T20:45:55.038Z,27.88
2022-12-03T20:49:17.076Z,29.10
2022-12-03T20:52:36.256Z,28.75
2022-12-03T20:56:04.107Z,34.25
2022-12-03T20:59:23.672Z,32.65
2022-12-03T21:02:43.127Z,32.17
2022-12-03T21:06:07.249Z,29.77
2022-12-03T21:09:25.186Z,30.98
2022-12-03T21:12:48.321Z,32.80
2022-12-03T21:16:16.300Z,33.05
2022-12-03T21:19:39.290Z,28.25
2022-12-03T21:22:58.250Z,25.70
2022-12-03T21:26:18.366Z,28.10
2022-12-03T21:29:21.955Z,29.25
2022-12-03T21:32:28.195Z,31.60
2022-12-03T21:36:00.890Z,29.25
2022-12-03T21:39:32.852Z,29.60
2022-12-03T21:43:09.994Z,28.52
2022-12-03T21:47:10.569Z,29.83
2022-12-03T21:49:59.196Z,29.92
2022-12-03T21:53:03.101Z,29.85
2022-12-03T21:56:34.072Z,30.33
2022-12-03T21:59:58.061Z,29.58
2022-12-03T22:03:14.219Z,30.20
2022-12-03T22:06:25.660Z,30.70
2022-12-03T22:09:35.366Z,32.25
2022-12-03T22:13:00.118Z,29.73
2022-12-03T22:16:06.604Z,29.13
2022-12-03T22:19:10.650Z,29.20
2022-12-03T22:22:16.364Z,28.10
2022-12-03T22:25:23.984Z,28.13
2022-12-03T22:28:40.080Z,27.83
2022-12-03T22:31:46.158Z,26.67
2022-12-03T22:34:50.222Z,25.95
2022-12-03T22:38:04.594Z,25.13
2022-12-03T22:41:25.008Z,26.33
2022-12-03T22:44:44.714Z,25.93
2022-12-03T22:47:47.859Z,25.42
2022-12-03T22:50:57.313Z,26.30
2022-12-03T22:54:08.280Z,25.23
2022-12-03T22:57:30.139Z,24.55
2022-12-03T23:01:02.522Z,23.73
2022-12-03T23:04:38.689Z,25.75
2022-12-03T23:08:15.176Z,24.85
2022-12-03T23:11:48.095Z,23.65
2022-12-03T23:15:05.460Z,26.05
2022-12-03T23:18:31.527Z,24.37
2022-12-03T23:21:48.819Z,23.85
2022-12-03T23:25:08.666Z,23.15
2022-12-03T23:28:34.647Z,25.13
2022-12-03T23:32:05.610Z,24.05
2022-12-03T23:35:22.620Z,24.17
2022-12-03T23:38:43.536Z,23.25
2022-12-03T23:42:08.756Z,23.65
2022-12-03T23:45:27.539Z,24.75
2022-12-03T23:48:50.612Z,23.08
2022-12-03T23:52:12.763Z,22.70
2022-12-03T23:55:38.100Z,22.52
2022-12-03T23:58:56.623Z,24.92
